createdAt,value
2022-12-08T00:01:26.579Z,97008.00
2022-12-08T00:03:55.561Z,97007.06
2022-12-08T00:06:56.848Z,97016.91
2022-12-08T00:09:26.054Z,97001.22
2022-12-08T00:11:59.787Z,97012.88
2022-12-08T00:14:29.893Z,97004.28
2022-12-08T00:16:57.917Z,97003.31
2022-12-08T00:19:25.070Z,97003.78
2022-12-08T00:21:52.774Z,96994.88
2022-12-08T00:24:21.048Z,96992.88
2022-12-08T00:26:48.084Z,96985.31
2022-12-08T00:29:17.488Z,96983.31
2022-12-08T00:31:45.044Z,96984.28
2022-12-08T00:34:13.743Z,96971.63
2022-12-08T00:36:41.150Z,96981.50
2022-12-08T00:39:08.835Z,96973.91
2022-12-08T00:41:59.011Z,96980.22
2022-12-08T00:44:26.047Z,96979.00
2022-12-08T00:46:52.993Z,96969.63
2022-12-08T00:49:21.168Z,96973.16
2022-12-08T00:51:48.162Z,96973.34
2022-12-08T00:54:15.414Z,96961.22
2022-12-08T00:56:42.414Z,96962.47
2022-12-08T00:59:14.880Z,96964.00
2022-12-08T01:01:44.909Z,96962.19
2022-12-08T01:04:16.917Z,96967.25
2022-12-08T01:06:45.105Z,96964.00
2022-12-08T01:09:14.483Z,96964.75
2022-12-08T01:11:42.918Z,96970.78
2022-12-08T01:14:12.181Z,96963.44
2022-12-08T01:16:41.777Z,96967.25
2022-12-08T01:19:13.539Z,96963.44
2022-12-08T01:21:42.792Z,96974.53
2022-12-08T01:24:12.888Z,96964.41
2022-12-08T01:26:40.260Z,96970.44
2022-12-08T01:29:07.206Z,96966.44
2022-12-08T01:31:34.111Z,96970.91
2022-12-08T01:34:01.033Z,96972.47
2022-12-08T01:36:31.786Z,96961.13
2022-12-08T01:39:01.370Z,96965.38
2022-12-08T01:41:31.867Z,96965.66
2022-12-08T01:44:00.655Z,96963.84
2022-12-08T01:46:29.825Z,96962.34
2022-12-08T01:49:06.940Z,96959.81
2022-12-08T01:52:14.400Z,96970.16
2022-12-08T01:54:50.182Z,96955.72
2022-12-08T01:57:23.821Z,96946.06
2022-12-08T01:59:57.815Z,96948.44
2022-12-08T02:02:31.601Z,96949.69
2022-12-08T02:05:00.837Z,96950.47
2022-12-08T02:07:28.247Z,96949.69
2022-12-08T02:09:58.725Z,96948.72
2022-12-08T02:12:26.892Z,96941.91
2022-12-08T02:14:55.304Z,96946.22
2022-12-08T02:17:45.804Z,96938.72
2022-12-08T02:20:37.047Z,96937.19
2022-12-08T02:23:25.217Z,96936.16
2022-12-08T02:26:14.266Z,96942.75
2022-12-08T02:29:08.876Z,96940.47
2022-12-08T02:31:54.202Z,96930.13
2022-12-08T02:34:36.833Z,96925.81
2022-12-08T02:37:15.902Z,96920.25
2022-12-08T02:39:46.623Z,96921.50
2022-12-08T02:42:23.561Z,96915.94
2022-12-08T02:45:09.634Z,96920.94
2022-12-08T02:47:38.803Z,96923.25
2022-12-08T02:50:07.446Z,96919.91
2022-12-08T02:52:34.271Z,96922.00
2022-12-08T02:55:23.924Z,96911.38
2022-12-08T02:58:06.097Z,96911.38
2022-12-08T03:00:53.525Z,96898.94
2022-12-08T03:04:00.919Z,96909.56
2022-12-08T03:06:52.693Z,96908.03
2022-12-08T03:09:46.040Z,96893.69
2022-12-08T03:12:56.774Z,96896.94
2022-12-08T03:15:23.947Z,96901.72
2022-12-08T03:17:56.686Z,96899.72
2022-12-08T03:20:29.013Z,96894.91
2022-12-08T03:23:00.686Z,96894.16
2022-12-08T03:25:32.081Z,96895.19
2022-12-08T03:27:59.928Z,96889.63
2022-12-08T03:30:31.034Z,96892.41
2022-12-08T03:33:12.675Z,96884.28
2022-12-08T03:35:43.183Z,96890.59
2022-12-08T03:38:13.321Z,96884.28
2022-12-08T03:40:40.881Z,96879.97
2022-12-08T03:43:09.736Z,96879.72
2022-12-08T03:45:36.759Z,96870.34
2022-12-08T03:48:05.078Z,96871.38
2022-12-08T03:50:33.318Z,96872.41
2022-12-08T03:53:00.196Z,96873.69
2022-12-08T03:55:28.223Z,96871.19
2022-12-08T03:57:55.122Z,96871.66
2022-12-08T04:00:22.327Z,96870.16
2022-12-08T04:02:50.825Z,96876.72
2022-12-08T04:05:17.750Z,96874.44
2022-12-08T04:07:48.004Z,96865.06
2022-12-08T04:10:15.373Z,96861.28
2022-12-08T04:12:42.426Z,96855.41
2022-12-08T04:15:10.246Z,96860.50
2022-12-08T04:17:37.201Z,96862.00
2022-12-08T04:20:07.647Z,96857.50
2022-12-08T04:22:35.099Z,96854.72
2022-12-08T04:25:05.242Z,96848.97
2022-12-08T04:27:32.392Z,96855.28
2022-12-08T04:29:59.555Z,96848.19
2022-12-08T04:32:29.364Z,96848.19
2022-12-08T04:34:56.318Z,96842.63
2022-12-08T04:37:23.757Z,96851.25
2022-12-08T04:39:50.659Z,96839.38
2022-12-08T04:42:18.015Z,96843.69
2022-12-08T04:44:45.009Z,96838.13
2022-12-08T04:47:16.035Z,96841.47
2022-12-08T04:49:42.999Z,96839.16
2022-12-08T04:52:11.187Z,96850.81
2022-12-08T04:54:39.126Z,96845.03
2022-12-08T04:57:06.948Z,96840.47
2022-12-08T04:59:34.571Z,96838.69
2022-12-08T05:02:01.600Z,96831.59
2022-12-08T05:04:28.679Z,96841.41
2022-12-08T05:06:57.335Z,96835.56
2022-12-08T05:09:24.380Z,96840.16
2022-12-08T05:11:51.373Z,96838.88
2022-12-08T05:14:19.091Z,96840.16
2022-12-08T05:16:51.089Z,96848.19
2022-12-08T05:19:19.296Z,96839.59
2022-12-08T05:21:46.225Z,96846.41
2022-12-08T05:24:14.606Z,96841.63
2022-12-08T05:26:41.644Z,96828.91
2022-12-08T05:29:08.845Z,96848.88
2022-12-08T05:31:37.175Z,96835.78
2022-12-08T05:34:04.244Z,96839.78
2022-12-08T05:36:31.216Z,96840.09
2022-12-08T05:39:00.624Z,96839.09
2022-12-08T05:41:28.286Z,96842.38
2022-12-08T05:43:55.440Z,96837.59
2022-12-08T05:46:22.798Z,96835.56
2022-12-08T05:48:52.066Z,96834.06
2022-12-08T05:51:21.922Z,96824.66
2022-12-08T05:53:51.710Z,96833.00
2022-12-08T05:56:20.626Z,96830.72
2022-12-08T05:58:48.245Z,96826.97
2022-12-08T06:01:28.372Z,96819.88
2022-12-08T06:03:57.272Z,96817.81
2022-12-08T06:06:27.843Z,96816.56
2022-12-08T06:08:56.735Z,96815.78
2022-12-08T06:11:28.798Z,96808.22
2022-12-08T06:13:56.985Z,96817.03
2022-12-08T06:16:26.697Z,96813.78
2022-12-08T06:18:55.242Z,96823.34
2022-12-08T06:21:23.625Z,96830.44
2022-12-08T06:23:54.044Z,96816.28
2022-12-08T06:26:22.524Z,96820.31
2022-12-08T06:28:51.843Z,96816.84
2022-12-08T06:31:25.688Z,96825.19
2022-12-08T06:33:53.825Z,96823.63
2022-12-08T06:36:23.762Z,96823.91
2022-12-08T06:38:51.914Z,96818.34
2022-12-08T06:41:19.605Z,96824.44
2022-12-08T06:43:48.030Z,96827.72
2022-12-08T06:46:20.114Z,96827.72
2022-12-08T06:48:50.703Z,96832.53
2022-12-08T06:51:22.028Z,96831.22
2022-12-08T06:53:50.068Z,96833.22
2022-12-08T06:56:20.332Z,96831.97
2022-12-08T06:58:52.357Z,96830.22
2022-12-08T07:01:20.967Z,96832.53
2022-12-08T07:03:48.576Z,96828.69
2022-12-08T07:06:18.622Z,96829.75
2022-12-08T07:08:48.538Z,96830.44
2022-12-08T07:11:21.197Z,96836.75
2022-12-08T07:13:49.929Z,96836.97
2022-12-08T07:16:17.449Z,96841.00
2022-12-08T07:18:45.552Z,96824.06
2022-12-08T07:21:16.863Z,96830.91
2022-12-08T07:23:49.259Z,96840.53
2022-12-08T07:26:19.271Z,96839.53
2022-12-08T07:28:48.484Z,96836.00
2022-12-08T07:31:23.827Z,96832.19
2022-12-08T07:33:51.878Z,96824.88
2022-12-08T07:36:19.349Z,96829.44
2022-12-08T07:38:46.818Z,96831.28
2022-12-08T07:41:19.385Z,96837.78
2022-12-08T07:43:47.244Z,96839.06
2022-12-08T07:46:17.667Z,96831.69
2022-12-08T07:48:46.762Z,96838.78
2022-12-08T07:51:16.065Z,96834.47
2022-12-08T07:53:51.610Z,96828.13
2022-12-08T07:56:21.543Z,96825.88
2022-12-08T07:58:52.463Z,96829.88
2022-12-08T08:01:29.277Z,96827.13
2022-12-08T08:04:01.646Z,96828.34
2022-12-08T08:06:29.759Z,96820.53
2022-12-08T08:08:59.785Z,96824.34
2022-12-08T08:11:27.606Z,96830.16
2022-12-08T08:13:58.464Z,96822.09
2022-12-08T08:16:25.690Z,96818.34
2022-12-08T08:18:52.774Z,96820.66
2022-12-08T08:21:44.243Z,96827.72
2022-12-08T08:24:08.644Z,96822.94
2022-12-08T08:26:37.430Z,96823.72
2022-12-08T08:29:04.746Z,96819.94
2022-12-08T08:31:34.113Z,96825.75
2022-12-08T08:34:06.747Z,96825.00
2022-12-08T08:36:34.024Z,96824.81
2022-12-08T08:39:06.168Z,96826.81
2022-12-08T08:41:33.559Z,96831.13
2022-12-08T08:44:00.859Z,96823.06
2022-12-08T08:46:32.078Z,96822.06
2022-12-08T08:48:59.125Z,96825.13
2022-12-08T08:51:30.533Z,96823.13
2022-12-08T08:53:58.744Z,96816.03
2022-12-08T08:56:28.924Z,96825.59
2022-12-08T08:58:58.283Z,96825.13
2022-12-08T09:01:27.734Z,96827.63
2022-12-08T09:03:56.563Z,96834.69
2022-12-08T09:06:25.573Z,96825.13
2022-12-08T09:08:55.571Z,96825.13
2022-12-08T09:11:42.977Z,96829.69
2022-12-08T09:14:15.812Z,96822.41
2022-12-08T09:16:43.124Z,96818.59
2022-12-08T09:19:10.616Z,96832.81
2022-12-08T09:21:39.454Z,96830.25
2022-12-08T09:24:07.008Z,96837.31
2022-12-08T09:26:38.814Z,96833.00
2022-12-08T09:29:05.938Z,96826.97
2022-12-08T09:31:33.358Z,96827.97
2022-12-08T09:34:04.195Z,96823.72
2022-12-08T09:36:32.395Z,96818.16
2022-12-08T09:38:59.605Z,96827.53
2022-12-08T09:41:48.265Z,96822.97
2022-12-08T09:44:19.438Z,96817.19
2022-12-08T09:46:51.215Z,96816.94
2022-12-08T09:49:22.713Z,96809.09
2022-12-08T09:51:50.100Z,96811.16
2022-12-08T09:54:30.015Z,96811.72
2022-12-08T09:57:01.163Z,96805.34
2022-12-08T09:59:32.463Z,96807.91
2022-12-08T10:02:01.262Z,96801.88
2022-12-08T10:04:37.668Z,96804.66
2022-12-08T10:07:44.884Z,96803.66
2022-12-08T10:10:29.510Z,96799.09
2022-12-08T10:13:08.678Z,96800.59
2022-12-08T10:16:17.053Z,96793.53
2022-12-08T10:19:05.805Z,96792.25
2022-12-08T10:21:33.369Z,96791.72
2022-12-08T10:24:07.336Z,96791.72
2022-12-08T10:26:36.711Z,96788.41
2022-12-08T10:29:12.264Z,96780.34
2022-12-08T10:31:39.799Z,96787.47
2022-12-08T10:34:23.305Z,96778.38
2022-12-08T10:37:01.105Z,96774.88
2022-12-08T10:39:46.022Z,96771.34
2022-12-08T10:42:18.464Z,96759.47
2022-12-08T10:45:00.996Z,96758.50
2022-12-08T10:47:30.387Z,96761.28
2022-12-08T10:50:21.389Z,96753.19
2022-12-08T10:53:22.783Z,96758.03
2022-12-08T10:56:05.401Z,96762.34
2022-12-08T10:58:34.228Z,96761.34
2022-12-08T11:01:07.718Z,96760.38
2022-12-08T11:03:45.081Z,96760.38
2022-12-08T11:06:22.360Z,96758.63
2022-12-08T11:08:54.297Z,96757.59
2022-12-08T11:11:29.087Z,96765.19
2022-12-08T11:13:56.942Z,96749.78
2022-12-08T11:16:24.313Z,96749.25
2022-12-08T11:19:06.381Z,96746.72
2022-12-08T11:21:37.827Z,96735.16
2022-12-08T11:24:22.247Z,96737.22
2022-12-08T11:27:00.251Z,96736.00
2022-12-08T11:29:29.096Z,96738.81
2022-12-08T11:32:12.872Z,96721.09
2022-12-08T11:35:04.259Z,96726.97
2022-12-08T11:37:42.177Z,96728.50
2022-12-08T11:40:26.685Z,96728.28
2022-12-08T11:43:06.949Z,96716.19
2022-12-08T11:45:37.552Z,96714.47
2022-12-08T11:48:25.632Z,96716.78
2022-12-08T11:50:58.755Z,96714.75
2022-12-08T11:53:44.108Z,96714.69
2022-12-08T11:56:21.651Z,96706.31
2022-12-08T11:58:53.841Z,96708.31
2022-12-08T12:01:25.936Z,96715.16
2022-12-08T12:04:00.909Z,96705.78
2022-12-08T12:06:54.760Z,96708.56
2022-12-08T12:09:52.796Z,96699.94
2022-12-08T12:12:27.476Z,96701.72
2022-12-08T12:15:37.974Z,96707.97
2022-12-08T12:18:25.781Z,96704.38
2022-12-08T12:20:58.706Z,96705.66
2022-12-08T12:23:38.830Z,96705.38
2022-12-08T12:26:10.171Z,96693.72
2022-12-08T12:28:50.843Z,96694.25
2022-12-08T12:31:27.414Z,96698.28
2022-12-08T12:34:08.467Z,96696.22
2022-12-08T12:36:49.511Z,96708.34
2022-12-08T12:39:24.914Z,96682.56
2022-12-08T12:41:59.353Z,96697.47
2022-12-08T12:44:33.328Z,96694.41
2022-12-08T12:47:10.480Z,96681.03
2022-12-08T12:49:43.742Z,96677.53
2022-12-08T12:52:11.204Z,96681.78
2022-12-08T12:54:43.359Z,96679.25
2022-12-08T12:57:11.416Z,96661.81
2022-12-08T12:59:55.841Z,96662.09
2022-12-08T13:02:29.985Z,96663.16
2022-12-08T13:05:11.143Z,96670.72
2022-12-08T13:07:44.359Z,96653.03
2022-12-08T13:10:29.713Z,96666.47
2022-12-08T13:13:22.363Z,96659.16
2022-12-08T13:15:56.493Z,96665.19
2022-12-08T13:18:40.229Z,96663.94
2022-12-08T13:21:10.332Z,96655.38
2022-12-08T13:23:37.274Z,96670.28
2022-12-08T13:26:40.079Z,96664.72
2022-12-08T13:29:13.762Z,96661.94
2022-12-08T13:31:51.096Z,96665.72
2022-12-08T13:34:59.428Z,96664.72
2022-12-08T13:37:54.283Z,96663.44
2022-12-08T13:40:25.613Z,96672.50
2022-12-08T13:43:16.454Z,96665.94
2022-12-08T13:57:40.434Z,96662.44
2022-12-08T14:04:22.060Z,96653.28
2022-12-08T14:06:47.827Z,96659.59
2022-12-08T14:09:31.448Z,96644.63
2022-12-08T14:12:11.942Z,96666.94
2022-12-08T14:15:08.551Z,96668.44
2022-12-08T14:17:38.357Z,96676.53
2022-12-08T14:20:24.766Z,96669.72
2022-12-08T14:22:52.979Z,96680.31
2022-12-08T14:25:20.971Z,96677.78
2022-12-08T14:27:49.115Z,96672.72
2022-12-08T14:30:22.501Z,96668.91
2022-12-08T14:33:01.380Z,96667.13
2022-12-08T14:35:32.956Z,96671.16
2022-12-08T14:38:20.956Z,96670.88
2022-12-08T14:41:03.710Z,96665.31
2022-12-08T14:43:31.151Z,96675.19
2022-12-08T14:46:02.507Z,96663.59
2022-12-08T14:48:38.664Z,96662.53
2022-12-08T14:51:06.563Z,96660.75
2022-12-08T14:53:46.610Z,96656.22
2022-12-08T14:56:24.647Z,96660.00
2022-12-08T14:59:15.477Z,96658.47
2022-12-08T15:01:43.834Z,96661.97
2022-12-08T15:04:18.281Z,96669.28
2022-12-08T15:06:50.878Z,96662.97
2022-12-08T15:09:30.383Z,96667.25
2022-12-08T15:12:23.262Z,96665.75
2022-12-08T15:14:58.082Z,96671.28
2022-12-08T15:17:40.508Z,96666.22
2022-12-08T15:20:28.806Z,96668.22
2022-12-08T15:23:00.317Z,96660.63
2022-12-08T15:25:27.151Z,96664.66
2022-12-08T15:27:54.010Z,96675.75
2022-12-08T15:30:21.520Z,96675.22
2022-12-08T15:32:52.365Z,96679.00
2022-12-08T15:35:19.232Z,96682.25
2022-12-08T15:37:46.703Z,96683.00
2022-12-08T15:40:23.219Z,96686.25
2022-12-08T15:42:50.127Z,96678.41
2022-12-08T15:45:17.568Z,96693.34
2022-12-08T15:47:45.522Z,96681.47
2022-12-08T15:50:17.951Z,96688.81
2022-12-08T15:52:44.925Z,96686.50
2022-12-08T15:55:16.428Z,96691.34
2022-12-08T15:58:51.950Z,96681.00
2022-12-08T16:00:54.925Z,96684.84
2022-12-08T16:04:02.678Z,96677.53
2022-12-08T16:07:04.867Z,96681.53
2022-12-08T16:09:12.479Z,96680.03
2022-12-08T16:12:07.625Z,96678.28
2022-12-08T16:17:25.157Z,96686.88
2022-12-08T16:19:52.158Z,96676.75
2022-12-08T16:25:20.012Z,96666.47
2022-12-08T16:28:12.577Z,96678.59
2022-12-08T16:30:41.527Z,96675.31
2022-12-08T16:33:09.750Z,96676.63
2022-12-08T16:35:36.613Z,96676.63
2022-12-08T16:38:04.898Z,96670.78
2022-12-08T16:40:32.701Z,96685.00
2022-12-08T16:42:59.691Z,96682.47
2022-12-08T16:45:30.023Z,96684.00
2022-12-08T16:48:01.056Z,96687.31
2022-12-08T16:50:34.034Z,96677.44
2022-12-08T16:53:14.204Z,96676.44
2022-12-08T16:55:49.356Z,96682.00
2022-12-08T16:58:21.059Z,96682.28
2022-12-08T17:00:49.476Z,96682.75
2022-12-08T17:03:17.737Z,96680.50
2022-12-08T17:05:48.988Z,96685.53
2022-12-08T17:08:17.909Z,96682.47
2022-12-08T17:11:04.819Z,96685.25
2022-12-08T17:13:31.611Z,96684.72
2022-12-08T17:15:58.478Z,96682.69
2022-12-08T17:18:25.287Z,96671.59
2022-12-08T17:20:53.607Z,96676.91
2022-12-08T17:23:20.480Z,96681.47
2022-12-08T17:26:00.697Z,96680.50
2022-12-08T17:28:51.927Z,96678.97
2022-12-08T17:31:16.735Z,96675.19
2022-12-08T17:33:44.324Z,96676.91
2022-12-08T17:36:13.702Z,96677.19
2022-12-08T17:38:41.695Z,96667.03
2022-12-08T17:41:11.166Z,96680.72
2022-12-08T17:43:38.474Z,96675.66
2022-12-08T17:46:05.942Z,96672.34
2022-12-08T17:48:35.024Z,96674.91
2022-12-08T17:51:02.175Z,96680.94
2022-12-08T17:53:32.903Z,96679.44
2022-12-08T17:56:04.228Z,96677.91
2022-12-08T17:58:31.498Z,96683.69
2022-12-08T18:00:58.347Z,96676.34
2022-12-08T18:03:26.839Z,96674.84
2022-12-08T18:05:53.696Z,96683.91
2022-12-08T18:08:20.536Z,96676.56
2022-12-08T18:10:48.599Z,96678.09
2022-12-08T18:13:15.663Z,96677.81
2022-12-08T18:15:42.545Z,96676.53
2022-12-08T18:18:09.875Z,96678.28
2022-12-08T18:20:37.831Z,96670.66
2022-12-08T18:23:04.817Z,96671.44
2022-12-08T18:25:32.326Z,96676.00
2022-12-08T18:27:59.216Z,96675.22
2022-12-08T18:30:27.549Z,96681.28
2022-12-08T18:32:57.404Z,96678.22
2022-12-08T18:35:24.702Z,96678.75
2022-12-08T18:37:56.218Z,96676.44
2022-12-08T18:40:23.128Z,96675.69
2022-12-08T18:42:50.615Z,96678.94
2022-12-08T18:45:22.592Z,96674.91
2022-12-08T18:47:51.309Z,96680.47
2022-12-08T18:50:20.188Z,96679.47
2022-12-08T18:52:47.713Z,96669.59
2022-12-08T18:55:15.137Z,96688.56
2022-12-08T18:57:43.405Z,96687.78
2022-12-08T19:00:16.258Z,96682.25
2022-12-08T19:02:49.172Z,96679.19
2022-12-08T19:05:20.670Z,96684.25
2022-12-08T19:07:49.603Z,96691.06
2022-12-08T19:10:20.183Z,96678.41
2022-12-08T19:12:50.541Z,96687.03
2022-12-08T19:15:18.848Z,96678.19
2022-12-08T19:17:50.465Z,96678.94
2022-12-08T19:20:21.370Z,96676.69
2022-12-08T19:22:48.286Z,96682.25
2022-12-08T19:25:20.197Z,96679.47
2022-12-08T19:27:47.209Z,96685.00
2022-12-08T19:30:26.287Z,96682.25
2022-12-08T19:33:02.329Z,96681.97
2022-12-08T19:35:32.810Z,96676.41
2022-12-08T19:38:00.861Z,96676.16
2022-12-08T19:40:48.968Z,96674.16
2022-12-08T19:43:40.376Z,96671.38
2022-12-08T19:46:10.874Z,96669.84
2022-12-08T19:48:38.666Z,96674.91
2022-12-08T19:51:05.947Z,96670.13
2022-12-08T19:53:35.121Z,96672.91
2022-12-08T19:56:02.231Z,96672.63
2022-12-08T19:58:29.410Z,96676.69
2022-12-08T20:00:56.488Z,96676.69
2022-12-08T20:03:23.545Z,96673.13
2022-12-08T20:05:55.189Z,96679.72
2022-12-08T20:08:23.166Z,96678.19
2022-12-08T20:10:56.182Z,96682.25
2022-12-08T20:13:46.012Z,96688.56
2022-12-08T20:16:16.663Z,96690.28
2022-12-08T20:18:44.595Z,96692.81
2022-12-08T20:21:14.023Z,96685.72
2022-12-08T20:23:41.996Z,96692.81
2022-12-08T20:26:19.910Z,96684.19
2022-12-08T20:28:47.866Z,96691.06
2022-12-08T20:31:27.629Z,96701.94
2022-12-08T20:33:55.823Z,96688.81
2022-12-08T20:36:25.940Z,96686.78
2022-12-08T20:38:55.432Z,96692.88
2022-12-08T20:41:28.033Z,96687.34
2022-12-08T20:43:55.655Z,96704.00
2022-12-08T20:46:22.648Z,96697.91
2022-12-08T20:48:51.368Z,96693.34
2022-12-08T20:51:25.680Z,96698.38
2022-12-08T20:53:57.761Z,96699.88
2022-12-08T20:56:25.742Z,96694.53
2022-12-08T20:58:56.013Z,96703.16
2022-12-08T21:01:24.314Z,96703.41
2022-12-08T21:03:52.867Z,96704.69
2022-12-08T21:06:28.143Z,96703.16
2022-12-08T21:08:55.612Z,96700.84
2022-12-08T21:11:24.730Z,96702.88
2022-12-08T21:13:51.814Z,96699.06
2022-12-08T21:16:18.775Z,96701.84
2022-12-08T21:18:45.871Z,96700.31
2022-12-08T21:21:14.739Z,96698.78
2022-12-08T21:23:45.383Z,96690.97
2022-12-08T21:26:20.806Z,96687.44
2022-12-08T21:28:48.258Z,96685.19
2022-12-08T21:31:19.173Z,96683.44
2022-12-08T21:33:51.677Z,96701.63
2022-12-08T21:36:25.358Z,96696.59
2022-12-08T21:38:55.000Z,96701.94
2022-12-08T21:41:42.965Z,96693.88
2022-12-08T21:44:12.260Z,96701.75
2022-12-08T21:46:42.342Z,96692.94
2022-12-08T21:49:09.868Z,96691.19
2022-12-08T21:51:41.530Z,96697.00
2022-12-08T21:54:18.225Z,96695.00
2022-12-08T21:56:49.826Z,96694.78
2022-12-08T21:59:21.251Z,96699.06
2022-12-08T22:01:49.858Z,96699.59
2022-12-08T22:04:19.491Z,96704.41
2022-12-08T22:06:48.712Z,96712.22
2022-12-08T22:09:16.057Z,96700.56
2022-12-08T22:11:44.555Z,96704.88
2022-12-08T22:14:15.188Z,96701.34
2022-12-08T22:16:44.116Z,96701.31
2022-12-08T22:19:15.988Z,96688.16
2022-12-08T22:21:43.555Z,96693.19
2022-12-08T22:24:11.087Z,96686.38
2022-12-08T22:26:40.204Z,96691.47
2022-12-08T22:29:12.206Z,96688.41
2022-12-08T22:31:39.562Z,96677.53
2022-12-08T22:34:06.843Z,96677.22
2022-12-08T22:36:34.346Z,96673.13
2022-12-08T22:39:02.582Z,96689.28
2022-12-08T22:41:29.902Z,96693.34
2022-12-08T22:43:56.998Z,96684.72
2022-12-08T22:46:27.904Z,96688.56
2022-12-08T22:48:55.738Z,96696.38
2022-12-08T22:51:23.018Z,96703.47
2022-12-08T22:53:50.919Z,96699.16
2022-12-08T22:56:19.721Z,96698.38
2022-12-08T22:58:46.920Z,96687.03
2022-12-08T23:01:30.698Z,96691.59
2022-12-08T23:03:59.439Z,96696.16
2022-12-08T23:06:27.906Z,96693.13
2022-12-08T23:08:56.568Z,96701.94
2022-12-08T23:11:30.900Z,96702.22
2022-12-08T23:14:20.326Z,96700.97
2022-12-08T23:16:47.778Z,96682.78
2022-12-08T23:19:15.728Z,96689.09
2022-12-08T23:21:44.218Z,96688.56
2022-12-08T23:24:11.607Z,96687.25
2022-12-08T23:26:38.750Z,96674.34
2022-12-08T23:29:07.763Z,96673.63
2022-12-08T23:31:36.218Z,96675.16
2022-12-08T23:34:06.041Z,96662.03
2022-12-08T23:36:33.187Z,96672.16
2022-12-08T23:39:00.872Z,96671.13
2022-12-08T23:41:28.505Z,96669.81
2022-12-08T23:43:57.256Z,96670.06
2022-12-08T23:46:26.179Z,96662.69
2022-12-08T23:48:53.334Z,96666.72
2022-12-08T23:51:23.664Z,96660.19
2022-12-08T23:53:51.838Z,96656.91
2022-12-08T23:56:20.398Z,96661.97
2022-12-08T23:58:49.168Z,96656.72
